Time;durP1;ratioP1;P1;durP2;ratioP2;P2;SDS_P1;SDS_P2;PMS_P1;PMS_P2;Temp;Humidity;BMP_temperature;BMP_pressure;BME280_temperature;BME280_humidity;BME280_pressure;Samples;Min_cycle;Max_cycle;Signal;HPM_P1;HPM_P2
2022/08/03 00:00:04;;;;;;;5.50;3.08;;;;;;;22.16;66.45;101462.03;4991523;28;20026;-64
2022/08/03 00:02:29;;;;;;;6.47;2.70;;;;;;;22.12;66.63;101459.47;4984754;28;20470;-64
2022/08/03 00:04:54;;;;;;;7.90;3.20;;;;;;;22.03;67.63;101456.03;4992239;28;20073;-64
2022/08/03 00:07:20;;;;;;;5.77;2.50;;;;;;;22.03;67.19;101460.47;4989299;28;20399;-64
2022/08/03 00:09:45;;;;;;;4.88;2.55;;;;;;;21.97;67.13;101453.47;4991853;28;20370;-64
2022/08/03 00:12:10;;;;;;;7.80;3.10;;;;;;;21.97;67.22;101455.22;4989668;28;20042;-64
2022/08/03 00:14:36;;;;;;;7.07;3.17;;;;;;;21.94;66.59;101457.94;4989758;28;20034;-64
2022/08/03 00:17:02;;;;;;;6.32;3.05;;;;;;;21.91;66.43;101450.03;4989418;28;20118;-64
2022/08/03 00:19:27;;;;;;;6.22;3.15;;;;;;;21.85;66.56;101453.63;4983504;28;20522;-64
2022/08/03 00:21:52;;;;;;;6.63;2.90;;;;;;;21.83;66.97;101460.75;4988062;28;20033;-63
2022/08/03 00:24:18;;;;;;;8.50;2.95;;;;;;;21.78;66.35;101465.22;4991728;28;20080;-64
2022/08/03 00:26:44;;;;;;;7.45;3.00;;;;;;;21.72;67.38;101458.22;4985510;28;20092;-64
2022/08/03 00:29:09;;;;;;;6.55;3.30;;;;;;;21.73;66.46;101456.47;4988763;28;20034;-64
2022/08/03 00:31:34;;;;;;;8.27;3.13;;;;;;;21.67;66.96;101457.41;4979714;28;20041;-63
2022/08/03 00:33:59;;;;;;;7.20;3.15;;;;;;;21.65;66.80;101452.13;4986213;28;20030;-64
2022/08/03 00:36:25;;;;;;;6.78;3.20;;;;;;;21.61;66.34;101453.06;4987116;28;20481;-64
2022/08/03 00:38:51;;;;;;;6.88;3.45;;;;;;;21.57;66.33;101455.78;4991963;28;20469;-64
2022/08/03 00:41:16;;;;;;;6.63;3.13;;;;;;;21.53;66.41;101452.28;4988402;28;21484;-64
2022/08/03 00:43:41;;;;;;;7.07;3.67;;;;;;;21.50;66.95;101445.19;4988542;28;20030;-64
2022/08/03 00:46:07;;;;;;;10.13;4.47;;;;;;;21.42;68.49;101449.72;4991567;28;20018;-64
2022/08/03 00:48:32;;;;;;;10.20;4.65;;;;;;;21.33;69.45;101448.06;4986878;28;20109;-64
2022/08/03 00:50:57;;;;;;;10.55;4.30;;;;;;;21.31;69.44;101451.63;4990367;28;20032;-64
2022/08/03 00:53:23;;;;;;;8.00;4.43;;;;;;;21.29;68.97;101445.44;4989039;28;20049;-64
2022/08/03 00:55:49;;;;;;;11.50;4.97;;;;;;;21.28;68.98;101444.56;4990435;28;20073;-64
2022/08/03 00:58:14;;;;;;;10.57;4.65;;;;;;;21.28;68.54;101449.88;4989044;28;20492;-64
2022/08/03 01:00:39;;;;;;;9.27;4.28;;;;;;;21.27;68.88;101439.28;4987515;28;20022;-64
2022/08/03 01:03:09;;;;;;;8.40;3.97;;;;;;;21.24;68.83;101445.50;4990888;28;20018;-63
2022/08/03 01:05:48;;;;;;;8.45;3.50;;;;;;;21.21;68.74;101434.94;4988869;28;20165;-64
2022/08/03 01:08:19;;;;;;;;;;;;;;;21.33;66.99;101436.56;4985173;28;20034;-64
2022/08/03 01:11:05;;;;;;;7.35;3.50;;;;;;;21.24;67.60;101432.25;4985623;28;20435;-64
2022/08/03 01:13:40;;;;;;;8.80;3.80;;;;;;;21.17;68.13;101428.81;4989553;28;20034;-63
2022/08/03 01:16:19;;;;;;;9.32;3.63;;;;;;;21.14;68.67;101433.25;4991649;28;20093;-64
2022/08/03 01:18:52;;;;;;;8.20;3.83;;;;;;;21.11;68.93;101428.00;4986125;28;20057;-64
2022/08/03 01:21:31;;;;;;;7.63;3.70;;;;;;;21.05;68.96;101426.28;4990385;28;20143;-64
2022/08/03 01:24:29;;;;;;;9.13;3.97;;;;;;;21.05;67.30;101428.06;4988377;28;20034;-64
2022/08/03 01:27:28;;;;;;;7.03;3.47;;;;;;;20.95;67.40;101425.50;4983669;28;20030;-63
2022/08/03 01:29:57;;;;;;;;;;;;;;;21.04;66.64;101426.28;4986784;28;20057;-64
2022/08/03 01:32:33;;;;;;;;;;;;;;;21.04;66.90;101428.94;4978233;28;20368;-63
2022/08/03 01:35:01;;;;;;;;;;;;;;;21.01;66.86;101428.09;4989993;28;19976;-64
2022/08/03 01:37:46;;;;;;;;;;;;;;;20.99;66.39;101424.56;4984681;28;19920;-64
2022/08/03 01:40:13;;;;;;;;;;;;;;;20.98;66.40;101424.59;4990625;28;19924;-63
2022/08/03 01:42:39;;;;;;;;;;;;;;;20.97;66.50;101425.47;4991098;28;19920;-64
2022/08/03 01:45:06;;;;;;;;;;;;;;;20.95;66.72;101424.63;4986234;28;20044;-64
2022/08/03 01:47:31;;;;;;;;;;;;;;;20.93;66.79;101421.09;4984346;28;19929;-59
2022/08/03 01:49:59;;;;;;;;;;;;;;;20.89;66.66;101422.91;4990059;28;19910;-59
2022/08/03 01:52:25;;;;;;;;;;;;;;;20.87;66.88;101424.72;4986170;28;19925;-59
2022/08/03 01:54:52;;;;;;;;;;;;;;;20.84;66.40;101416.78;4976687;28;19972;-60
2022/08/03 01:57:18;;;;;;;;;;;;;;;20.81;66.62;101423.00;4989452;28;19914;-59
2022/08/03 01:59:44;;;;;;;;;;;;;;;20.78;66.74;101419.47;4987408;28;20411;-59
2022/08/03 02:02:11;;;;;;;;;;;;;;;20.74;66.41;101420.41;4990402;28;19913;-59
2022/08/03 02:04:37;;;;;;;;;;;;;;;20.70;66.36;101419.56;4987742;28;20058;-60
2022/08/03 02:07:02;;;;;;;;;;;;;;;20.67;66.45;101415.16;4986721;28;20396;-59
2022/08/03 02:09:28;;;;;;;;;;;;;;;20.64;66.83;101420.47;4987604;28;19940;-60
2022/08/03 02:11:55;;;;;;;;;;;;;;;20.63;66.76;101416.06;4989416;28;19924;-60
2022/08/03 02:14:20;;;;;;;;;;;;;;;20.63;66.66;101417.84;4988691;28;19925;-59
2022/08/03 02:16:47;;;;;;;;;;;;;;;20.60;66.93;101416.09;4986750;28;19918;-64
2022/08/03 02:19:13;;;;;;;;;;;;;;;20.58;67.22;101414.34;4987436;28;19917;-64
2022/08/03 02:21:40;;;;;;;;;;;;;;;20.55;67.26;101415.25;4989076;28;19925;-63
2022/08/03 02:24:05;;;;;;;;;;;;;;;20.53;67.31;101411.72;4985008;28;20357;-63
2022/08/03 02:26:31;;;;;;;;;;;;;;;20.51;67.18;101413.53;4985273;28;20444;-64
2022/08/03 02:29:16;;;;;;;;;;;;;;;20.49;67.29;101410.00;4987251;28;19914;-63
2022/08/03 02:31:42;;;;;;;;;;;;;;;20.46;67.17;101413.53;4966788;28;19964;-64
2022/08/03 02:34:11;;;;;;;;;;;;;;;20.46;66.81;101410.03;4988946;28;19914;-63
2022/08/03 02:36:38;;;;;;;;;;;;;;;20.44;66.73;101404.75;4990323;28;19918;-64
2022/08/03 02:39:04;;;;;;;;;;;;;;;20.42;66.61;101414.47;4970551;28;20108;-63
2022/08/03 02:41:49;;;;;;;;;;;;;;;20.41;67.09;101407.44;4987880;28;19925;-63
2022/08/03 02:44:16;;;;;;;;;;;;;;;20.40;66.99;101399.50;4985769;28;19913;-64
2022/08/03 02:46:43;;;;;;;;;;;;;;;20.38;67.11;101403.91;4987885;28;19924;-63
2022/08/03 02:49:11;;;;;;;;;;;;;;;20.36;67.42;101409.22;4987298;28;20423;-63
2022/08/03 02:51:38;;;;;;;;;;;;;;;20.33;67.11;101409.25;4987949;28;20548;-63
2022/08/03 02:54:04;;;;;;;;;;;;;;;20.30;67.18;101404.84;4965401;28;20022;-63
2022/08/03 02:56:29;;;;;;;;;;;;;;;20.28;67.40;101398.69;4988761;28;19952;-63
2022/08/03 02:58:56;;;;;;;;;;;;;;;20.27;67.55;101398.72;4982894;28;20243;-63
2022/08/03 03:01:21;;;;;;;;;;;;;;;20.25;67.49;101392.56;4987263;28;20088;-63
2022/08/03 03:03:48;;;;;;;;;;;;;;;20.22;67.44;101390.81;4989863;28;19972;-64
2022/08/03 03:06:15;;;;;;;;;;;;;;;20.19;67.33;101401.44;4988639;28;19921;-63
2022/08/03 03:08:41;;;;;;;;;;;;;;;20.17;67.36;101392.59;4989104;28;19914;-63
2022/08/03 03:11:06;;;;;;;;;;;;;;;20.14;67.23;101397.94;4983617;28;19937;-64
2022/08/03 03:13:32;;;;;;;;;;;;;;;20.12;67.62;101399.72;4986184;28;19986;-64
2022/08/03 03:16:00;;;;;;;;;;;;;;;20.12;67.56;101394.44;4983982;28;19923;-63
2022/08/03 03:18:27;;;;;;;;;;;;;;;20.10;67.51;101402.38;4980127;28;19977;-64
2022/08/03 03:20:52;;;;;;;;;;;;;;;20.08;67.68;101397.97;4987883;28;19921;-63
2022/08/03 03:23:19;;;;;;;;;;;;;;;20.08;67.74;101398.84;4985043;28;19914;-63
2022/08/03 03:25:45;;;;;;;;;;;;;;;20.08;68.07;101390.91;4984473;28;20024;-63
2022/08/03 03:28:10;;;;;;;;;;;;;;;20.08;68.18;101397.97;4978685;28;20367;-63
2022/08/03 03:30:36;;;;;;;;;;;;;;;20.08;67.98;101397.97;4978003;28;19925;-64
2022/08/03 03:33:01;;;;;;;;;;;;;;;20.08;67.83;101392.69;4979456;28;20393;-63
2022/08/03 03:35:27;;;;;;;;;;;;;;;20.08;68.37;101395.34;4979092;28;20560;-64
2022/08/03 03:37:52;;;;;;;;;;;;;;;20.06;68.19;101389.16;4978246;28;19914;-63
2022/08/03 03:40:18;;;;;;;;;;;;;;;20.06;68.08;101389.16;4978392;28;19928;-63
2022/08/03 03:42:43;;;;;;;;;;;;;;;20.06;68.54;101395.34;4979984;28;19913;-64
2022/08/03 03:45:09;;;;;;;;;;;;;;;20.05;68.64;101388.28;4976985;28;19918;-63
2022/08/03 03:47:34;;;;;;;;;;;;;;;20.05;68.39;101393.59;4977098;28;20022;-63
2022/08/03 03:50:01;;;;;;;;;;;;;;;20.06;68.83;101394.44;4977999;28;19921;-64
2022/08/03 03:52:26;;;;;;;;;;;;;;;20.05;68.79;101390.94;4959513;28;19957;-63
2022/08/03 03:54:51;;;;;;;;;;;;;;;20.06;69.01;101386.50;4976844;28;20001;-63
2022/08/03 03:57:16;;;;;;;;;;;;;;;20.05;68.77;101392.72;4980211;28;20008;-64
2022/08/03 03:59:42;;;;;;;;;;;;;;;20.04;68.88;101390.94;4976319;28;19917;-64
2022/08/03 04:02:08;;;;;;;;;;;;;;;20.02;69.00;101390.97;4977397;28;20000;-63
2022/08/03 04:12:49;;;;;;;;;;;;;;;19.93;68.89;101383.97;4979991;28;19929;-63
2022/08/03 04:15:16;;;;;;;;;;;;;;;19.92;69.08;101382.19;4979323;28;19921;-63
2022/08/03 04:17:42;;;;;;;;;;;;;;;19.89;69.25;101387.50;4977535;28;20583;-63
2022/08/03 04:20:09;;;;;;;;;;;;;;;19.88;69.20;101384.88;4978678;28;20293;-63
2022/08/03 04:22:36;;;;;;;;;;;;;;;19.85;69.22;101391.06;4980653;28;20086;-63
2022/08/03 04:25:04;;;;;;;;;;;;;;;19.82;69.04;101388.44;4979627;28;19917;-63
2022/08/03 04:27:32;;;;;;;;;;;;;;;19.79;69.32;101397.25;4980085;28;20371;-63
2022/08/03 04:29:58;;;;;;;;;;;;;;;19.77;69.05;101393.72;4980512;28;19917;-63
2022/08/03 04:32:27;;;;;;;;;;;;;;;19.76;69.26;101391.97;4978722;28;19922;-63
2022/08/03 04:34:52;;;;;;;;;;;;;;;19.73;69.33;101391.13;4975228;28;19929;-63
2022/08/03 04:37:23;;;;;;;;;;;;;;;19.71;69.42;101387.59;4980223;28;19933;-63
2022/08/03 04:39:49;;;;;;;;;;;;;;;19.70;69.51;101388.50;4981654;28;19926;-63
2022/08/03 04:42:15;;;;;;;;;;;;;;;19.68;69.69;101390.25;4978139;28;19924;-63
2022/08/03 04:44:41;;;;;;;;;;;;;;;19.67;70.15;101396.41;4982742;28;19905;-63
2022/08/03 04:47:07;;;;;;;;;;;;;;;19.66;70.08;101386.75;4980059;28;19924;-63
2022/08/03 04:49:34;;;;;;;;;;;;;;;19.64;70.46;101392.91;4979255;28;19905;-63
2022/08/03 04:52:00;;;;;;;;;;;;;;;19.66;70.34;101399.97;4981457;28;21319;-63
2022/08/03 04:54:25;;;;;;;;;;;;;;;19.66;70.42;101410.53;4981704;28;19993;-63
2022/08/03 04:56:51;;;;;;;;;;;;;;;19.66;70.56;101410.53;4984745;28;20285;-63
2022/08/03 04:59:16;;;;;;;;;;;;;;;19.66;70.73;101408.78;4981363;28;20300;-63
2022/08/03 05:01:42;;;;;;;;;;;;;;;19.67;70.88;101414.91;4980571;28;20558;-63
2022/08/03 05:04:07;;;;;;;;;;;;;;;19.68;70.79;101416.69;4982031;28;20498;-63
2022/08/03 05:06:32;;;;;;;;;;;;;;;19.69;71.29;101408.75;4975310;28;20385;-63
2022/08/03 05:08:57;;;;;;;;;;;;;;;19.69;71.03;101421.97;4979562;28;19921;-63
2022/08/03 05:11:23;;;;;;;;;;;;;;;19.69;71.03;101416.69;4977455;28;19918;-63
2022/08/03 05:13:48;;;;;;;;;;;;;;;19.70;71.49;101426.38;4982553;28;19917;-63
2022/08/03 05:16:13;;;;;;;;;;;;;;;19.71;71.24;101420.22;4978672;28;19906;-63
2022/08/03 05:18:42;;;;;;;;;;;;;;;19.73;71.35;101422.84;4966689;28;20356;-63
2022/08/03 05:21:08;;;;;;;;;;;;;;;19.74;71.55;101427.22;4982079;28;19918;-63
2022/08/03 05:23:33;;;;;;;;;;;;;;;19.74;71.87;101429.88;4981918;28;19913;-63
2022/08/03 05:25:58;;;;;;;;;;;;;;;19.75;71.80;101429.00;4985601;28;19913;-63
2022/08/03 05:28:23;;;;;;;;;;;;;;;19.75;72.08;101429.00;4981999;28;19996;-64
2022/08/03 05:30:48;;;;;;;;;;;;;;;19.74;71.83;101421.94;4980211;28;19921;-63
2022/08/03 05:33:14;;;;;;;;;;;;;;;19.77;72.03;101424.59;4981504;28;20001;-63
2022/08/03 05:35:39;;;;;;;;;;;;;;;19.79;71.89;101426.34;4981286;28;19995;-63
2022/08/03 05:38:05;;;;;;;;;;;;;;;19.79;72.36;101436.06;4977863;28;20336;-63
2022/08/03 05:40:30;;;;;;;;;;;;;;;19.81;72.74;101436.91;4986221;28;19921;-63
2022/08/03 05:42:56;;;;;;;;;;;;;;;19.81;72.73;101436.91;4978404;28;19922;-63
2022/08/03 05:45:21;;;;;;;;;;;;;;;19.82;72.42;101443.97;4980378;28;19913;-63
2022/08/03 05:47:47;;;;;;;;;;;;;;;19.84;71.99;101447.47;4980232;28;19928;-63
2022/08/03 05:50:13;;;;;;;;;;;;;;;19.85;72.76;101446.59;4976693;28;19912;-63
2022/08/03 05:52:39;;;;;;;;;;;;;;;19.86;72.59;101448.38;4978420;28;20419;-63
2022/08/03 05:55:05;;;;;;;;;;;;;;;19.87;73.63;101447.50;4977369;28;19917;-63
2022/08/03 05:57:30;;;;;;;;;;;;;;;19.89;73.20;101443.06;4981551;28;19922;-63
2022/08/03 05:59:55;;;;;;;;;;;;;;;19.92;73.03;101436.88;4986874;28;19921;-63
2022/08/03 06:02:20;;;;;;;;;;;;;;;19.94;74.32;101448.31;4988113;28;20381;-63
2022/08/03 06:04:45;;;;;;;;;;;;;;;19.95;73.55;101444.78;4991348;28;19922;-63
2022/08/03 06:07:11;;;;;;;;;;;;;;;19.97;73.11;101438.63;4989301;28;19917;-63
2022/08/03 06:09:36;;;;;;;;;;;;;;;20.01;73.59;101443.88;4989947;28;19921;-63
2022/08/03 06:12:01;;;;;;;;;;;;;;;20.04;73.82;101444.72;4987725;28;19922;-63
2022/08/03 06:14:26;;;;;;;;;;;;;;;20.06;73.93;101439.41;4988526;28;20096;-63
2022/08/03 06:16:51;;;;;;;;;;;;;;;20.10;73.78;101443.81;4986344;28;19918;-63
2022/08/03 06:19:17;;;;;;;;;;;;;;;20.13;73.42;101446.44;4988782;28;19925;-63
2022/08/03 06:21:42;;;;;;;;;;;;;;;20.17;73.55;101442.88;4988400;28;19967;-63
2022/08/03 06:24:07;;;;;;;;;;;;;;;20.22;75.08;101443.75;4987109;28;19933;-63
2022/08/03 06:26:32;;;;;;;;;;;;;;;20.26;73.98;101439.28;4988899;28;20105;-63
2022/08/03 06:28:57;;;;;;;;;;;;;;;20.31;74.14;101438.38;4990623;28;19918;-63
2022/08/03 06:31:24;;;;;;;;;;;;;;;20.38;73.16;101449.81;4989972;28;19921;-63
2022/08/03 06:33:50;;;;;;;;;;;;;;;20.44;73.71;101444.47;4970832;28;20524;-63
2022/08/03 06:36:15;;;;;;;;;;;;;;;20.50;73.42;101448.81;4988337;28;19913;-63
2022/08/03 06:38:40;;;;;;;;;;;;;;;20.55;73.08;101452.34;4986777;28;19914;-63
2022/08/03 06:41:06;;;;;;;;;;;;;;;20.61;73.10;101452.28;4988022;28;19918;-63
2022/08/03 06:43:34;;;;;;;;;;;;;;;20.69;72.90;101454.00;4987535;28;20004;-63
2022/08/03 06:45:59;;;;;;;;;;;;;;;20.75;72.84;101459.25;4987080;28;19922;-63
2022/08/03 06:48:24;;;;;;;;;;;;;;;20.81;72.52;101459.19;4986239;28;19924;-63
2022/08/03 06:50:50;;;;;;;;;;;;;;;20.89;73.46;101456.47;4988086;28;20440;-63
2022/08/03 06:53:15;;;;;;;;;;;;;;;20.94;72.15;101452.91;4987358;28;19963;-63
2022/08/03 06:55:40;;;;;;;;;;;;;;;21.00;72.61;101454.56;4985708;28;19906;-63
2022/08/03 06:58:05;;;;;;;;;;;;;;;21.05;72.00;101460.72;4981175;28;19918;-59
2022/08/03 07:00:30;;;;;;;;;;;;;;;21.09;71.79;101457.16;4986041;28;19956;-60
2022/08/03 07:02:55;;;;;;;;;;;;;;;21.16;71.83;101460.59;4988960;28;19906;-59
2022/08/03 07:05:21;;;;;;;;;;;;;;;21.22;71.96;101460.56;4988445;28;19992;-59
2022/08/03 07:07:47;;;;;;;;;;;;;;;21.27;71.35;101460.50;4986325;28;19918;-59
2022/08/03 07:10:12;;;;;;;;;;;;;;;21.32;71.58;101464.84;4981518;28;19925;-59
2022/08/03 07:12:38;;;;;;;;;;;;;;;21.38;70.86;101466.56;4980498;28;20385;-59
2022/08/03 07:15:03;;;;;;;;;;;;;;;21.45;71.02;101462.06;4978262;28;19921;-59
2022/08/03 07:17:30;;;;;;;;;;;;;;;21.50;70.84;101462.88;4987474;28;20372;-59
2022/08/03 07:19:56;;;;;;;;;;;;;;;21.56;71.23;101469.94;4987659;28;19922;-59
2022/08/03 07:22:21;;;;;;;;;;;;;;;21.61;70.07;101463.69;4985707;28;19921;-59
2022/08/03 07:24:46;;;;;;;;;;;;;;;21.65;70.95;101464.50;4982916;28;20355;-59
2022/08/03 07:27:12;;;;;;;;;;;;;;;21.70;70.31;101468.84;4983492;28;20422;-63
2022/08/03 07:29:37;;;;;;;;;;;;;;;21.78;70.19;101481.13;4983531;28;20404;-63
2022/08/03 07:32:03;;;;;;;;;;;;;;;21.85;70.20;101477.50;4981781;28;19925;-63
2022/08/03 07:34:29;;;;;;;;;;;;;;;21.91;70.13;101474.75;4981951;28;19921;-63
2022/08/03 07:36:54;;;;;;;;;;;;;;;21.98;70.02;101481.75;4983816;28;20380;-63
2022/08/03 07:39:19;;;;;;;;;;;;;;;22.05;69.39;101477.25;4981336;28;19968;-64
2022/08/03 07:41:44;;;;;;;;;;;;;;;22.09;69.71;101476.31;4981105;28;19917;-64
2022/08/03 07:44:10;;;;;;;;;;;;;;;22.14;68.96;101473.56;4987336;28;20316;-63
2022/08/03 07:46:35;;;;;;;;;;;;;;;22.20;69.44;101465.50;4982013;28;20005;-63
2022/08/03 07:49:00;;;;;;;;;;;;;;;22.26;69.07;101461.91;4980196;28;19913;-64
2022/08/03 07:51:25;;;;;;;;;;;;;;;22.31;69.12;101462.72;4989418;28;19975;-63
2022/08/03 07:53:50;;;;;;;;;;;;;;;22.37;68.97;101465.31;4992663;28;19921;-63
2022/08/03 07:56:16;;;;;;;;;;;;;;;22.44;68.80;101461.66;4988433;28;20285;-63
2022/08/03 07:58:41;;;;;;;;;;;;;;;22.52;68.33;101469.47;4991869;28;19917;-63
2022/08/03 08:01:06;;;;;;;;;;;;;;;22.58;68.41;101474.72;4967756;28;19913;-64
2022/08/03 08:03:31;;;;;;;;;;;;;;;22.65;68.25;101460.44;4986258;28;20016;-63
2022/08/03 08:05:57;;;;;;;;;;;;;;;22.71;68.31;101460.31;4990833;28;20115;-64
2022/08/03 08:08:22;;;;;;;;;;;;;;;22.79;68.26;101464.63;4987588;28;19971;-64
2022/08/03 08:10:47;;;;;;;;;;;;;;;22.87;68.29;101457.38;4992705;28;19929;-63
2022/08/03 08:13:12;;;;;;;;;;;;;;;22.92;66.72;101459.03;4991626;28;19995;-64
2022/08/03 08:15:37;;;;;;;;;;;;;;;23.00;67.29;101468.66;4992115;28;19914;-64
2022/08/03 08:18:03;;;;;;;;;;;;;;;23.07;66.91;101463.22;4993257;28;19918;-64
2022/08/03 08:20:30;;;;;;;;;;;;;;;23.14;66.05;101463.13;4992496;28;20373;-64
2022/08/03 08:22:56;;;;;;;;;;;;;;;23.21;66.25;101464.78;4991615;28;19917;-64
2022/08/03 08:25:22;;;;;;;;;;;;;;;23.26;66.38;101457.59;4992649;28;19914;-64
2022/08/03 08:27:48;;;;;;;;;;;;;;;23.33;66.41;101467.19;4974128;28;19929;-63
2022/08/03 08:30:14;;;;;;;;;;;;;;;23.37;65.92;101463.56;4993432;28;20419;-64
2022/08/03 08:32:40;;;;;;;;;;;;;;;23.43;65.26;101457.22;4994032;28;19917;-64
2022/08/03 08:35:06;;;;;;;;;;;;;;;23.50;65.70;101460.66;4993021;28;19928;-63
2022/08/03 08:37:31;;;;;;;;;;;;;;;23.57;65.48;101457.84;4993475;28;20012;-63
2022/08/03 08:39:57;;;;;;;;;;;;;;;23.66;65.37;101447.91;4984628;28;19928;-63
2022/08/03 08:42:22;;;;;;;;;;;;;;;23.71;64.43;101449.56;4991091;28;20345;-64
2022/08/03 08:44:48;;;;;;;;;;;;;;;23.81;64.57;101460.00;4990208;28;20385;-64
2022/08/03 08:47:13;;;;;;;;;;;;;;;23.86;63.37;101461.69;4990808;28;19917;-64
2022/08/03 08:49:39;;;;;;;;;;;;;;;23.95;63.68;101453.50;4991606;28;19921;-64
2022/08/03 08:52:06;;;;;;;;;;;;;;;24.03;63.21;101461.31;4990050;28;19979;-64
2022/08/03 08:54:32;;;;;;;;;;;;;;;24.13;62.54;101462.00;4989867;28;20390;-64
2022/08/03 08:57:00;;;;;;;;;;;;;;;24.21;62.13;101451.16;4991695;28;19956;-64
2022/08/03 08:59:26;;;;;;;;;;;;;;;24.30;62.57;101457.16;4992502;28;19914;-64
2022/08/03 09:01:55;;;;;;;;;;;;;;;24.38;62.58;101462.28;4975397;28;19956;-64
2022/08/03 09:04:20;;;;;;;;;;;;;;;24.45;62.39;101458.53;4991318;28;20411;-64
2022/08/03 09:06:46;;;;;;;;;;;;;;;24.53;62.55;101465.47;4992733;28;19917;-64
2022/08/03 09:09:11;;;;;;;;;;;;;;;24.60;62.43;101464.44;4991452;28;20001;-64
2022/08/03 09:11:36;;;;;;;;;;;;;;;24.70;62.03;101452.63;4991892;28;20013;-64
2022/08/03 09:14:01;;;;;;;;;;;;;;;24.78;61.78;101448.00;4992338;28;20301;-64
2022/08/03 09:16:27;;;;;;;;;;;;;;;24.88;61.22;101461.06;4992179;28;20004;-64
2022/08/03 09:18:52;;;;;;;;;;;;;;;24.97;59.16;101453.69;4991723;28;19913;-64
2022/08/03 09:21:24;;;;;;;;;;;;;;;25.10;60.21;101451.56;4992110;28;20048;-64
2022/08/03 09:23:50;;;;;;;;;;;;;;;25.20;60.42;101453.97;4992444;28;19910;-64
2022/08/03 09:26:20;;;;;;;;;;;;;;;25.28;60.20;101454.66;4990466;28;19917;-64
2022/08/03 09:28:45;;;;;;;;;;;;;;;25.36;59.12;101462.47;4991219;28;19913;-64
2022/08/03 09:31:11;;;;;;;;;;;;;;;25.46;58.58;101459.50;4992709;28;20282;-64
2022/08/03 09:33:46;;;;;;;;;;;;;;;25.57;59.27;101447.63;4992796;28;20388;-64
2022/08/03 09:36:31;;;;;;;;;;;;;;;25.66;60.01;101450.00;4992054;28;19948;-64
2022/08/03 09:39:01;;;;;;;;;;;;;;;25.78;58.71;101455.00;4991735;28;19921;-64
2022/08/03 09:41:26;;;;;;;;;;;;;;;25.87;58.52;101453.84;4991110;28;19918;-64
2022/08/03 09:43:55;;;;;;;;;;;;;;;25.95;58.21;101445.59;4992085;28;19918;-64
2022/08/03 09:46:20;;;;;;;;;;;;;;;26.05;58.87;101444.41;4970481;28;19918;-64
2022/08/03 09:48:46;;;;;;;;;;;;;;;26.14;56.21;101451.25;4991370;28;19924;-64
2022/08/03 09:51:12;;;;;;;;;;;;;;;26.24;58.11;101449.16;4973961;28;19917;-64
2022/08/03 09:53:44;;;;;;;;;;;;;;;26.30;55.13;101449.84;4992612;28;19910;-64
2022/08/03 09:56:09;;;;;;;;;;;;;;;26.41;56.63;101446.81;4990763;28;19917;-64
2022/08/03 09:58:43;;;;;;;;;;;;;;;26.50;56.37;101453.66;4990326;28;19920;-64
2022/08/03 10:01:08;;;;;;;;;;;;;;;26.57;55.96;101451.66;4990388;28;20420;-64
2022/08/03 10:03:35;;;;;;;;;;;;;;;26.66;55.91;101451.31;4992220;28;19936;-64
2022/08/03 10:06:15;;;;;;;;;;;;;;;26.76;54.02;101449.25;5025134;23;19925;-63
2022/08/03 10:08:40;;;;;;;;;;;;;;;26.87;55.03;101447.94;5027774;28;20400;-64
2022/08/03 10:11:06;;;;;;;;;;;;;;;26.96;55.29;101445.88;5035548;28;19923;-64
2022/08/03 10:13:31;;;;;;;;;;;;;;;27.05;55.83;101448.22;5030314;28;19920;-64
2022/08/03 10:15:56;;;;;;;;;;;;;;;27.11;54.34;101442.63;5029960;28;20420;-64
2022/08/03 10:18:21;;;;;;;;;;;;;;;27.22;55.07;101448.47;5040240;28;19968;-64
2022/08/03 10:20:57;;;;;;;;;;;;;;;27.31;52.39;101447.25;5048152;28;19919;-64
2022/08/03 10:23:23;;;;;;;;;;;;;;;27.42;53.37;101450.44;5038165;28;19916;-64
2022/08/03 10:25:51;;;;;;;;;;;;;;;27.51;54.11;101438.53;5039777;28;20319;-63
2022/08/03 10:28:17;;;;;;;;;;;;;;;27.57;53.04;101438.28;5027710;28;20541;-64
2022/08/03 10:30:46;;;;;;;;;;;;;;;27.62;50.29;101435.44;5030996;28;19909;-64
2022/08/03 10:33:17;;;;;;;;;;;;;;;27.73;53.35;101438.56;5029628;28;19920;-64
2022/08/03 10:35:43;;;;;;;;;;;;;;;27.77;49.89;101433.97;5037957;28;20411;-64
2022/08/03 10:38:11;;;;;;;;;;;;;;;27.85;49.53;101439.00;5028722;28;19913;-64
2022/08/03 10:40:36;;;;;;;;;;;;;;;27.92;50.17;101430.69;5030102;28;20369;-64
2022/08/03 10:43:17;;;;;;;;;;;;;;;28.02;51.76;101439.25;5024436;28;19919;-64
2022/08/03 10:45:44;;;;;;;;;;;;;;;28.09;50.84;101429.16;5031126;28;19925;-64
2022/08/03 10:48:10;;;;;;;;;;;;;;;28.18;51.37;101436.81;5012620;28;19913;-64
2022/08/03 10:50:35;;;;;;;;;;;;;;;28.25;50.85;101430.25;5019796;28;19960;-64
2022/08/03 10:53:05;;;;;;;;;;;;;;;28.32;50.19;101422.84;5020256;28;19920;-64
2022/08/03 10:58:37;;;;;;;;;;;;;;;28.43;50.95;101414.34;5021587;28;19972;-64
2022/08/03 11:01:03;;;;;;;;;;;;;;;28.52;50.01;101411.28;5011954;28;20288;-64
2022/08/03 11:03:28;;;;;;;;;;;;;;;28.62;50.41;101409.13;5025502;28;19913;-64
2022/08/03 11:06:12;;;;;;;;;;;;;;;28.71;50.31;101405.16;5021538;28;20392;-64
2022/08/03 11:08:38;;;;;;;;;;;;;;;28.80;47.46;101407.44;5013207;28;19923;-64
2022/08/03 11:11:18;;;;;;;;;;;;;;;28.90;49.56;101403.41;5010807;28;19933;-64
2022/08/03 11:13:55;;;;;;;;;;;;;;;28.99;48.70;101406.63;5003189;28;19921;-64
2022/08/03 11:16:22;;;;;;;;;;;;;;;29.06;46.98;101395.53;5002483;28;19928;-60
2022/08/03 11:18:56;;;;;;;;;;;;;;;29.16;47.91;101398.69;5006945;28;19921;-62
2022/08/03 11:21:41;;;;;;;;;;;;;;;29.20;47.21;101394.91;5008300;28;19921;-64
2022/08/03 11:24:06;;;;;;;;;;;;;;;29.27;46.59;101396.41;5014054;28;20284;-62
2022/08/03 11:26:32;;;;;;;;;;;;;;;29.33;47.06;101402.41;5012522;28;19924;-59
2022/08/03 11:29:17;;;;;;;;;;;;;;;29.41;47.76;101394.88;5006006;28;19919;-60
2022/08/03 11:31:44;;;;;;;;;;;;;;;29.52;46.63;101402.41;5002707;28;19921;-59
2022/08/03 11:34:10;;;;;;;;;;;;;;;29.58;45.23;101392.28;5001878;28;19913;-58
2022/08/03 11:36:57;;;;;;;;;;;;;;;29.67;47.55;101391.81;5003455;28;19917;-59
2022/08/03 11:39:36;;;;;;;;;;;;;;;29.78;47.81;101395.84;5010055;28;19914;-60
2022/08/03 11:42:21;;;;;;;;;;;;;;;29.85;46.53;101391.94;5007426;28;20213;-59
2022/08/03 11:44:47;;;;;;;;;;;;;;;29.90;46.06;101400.63;5018383;28;19913;-59
2022/08/03 11:47:16;;;;;;;;;;;;;;;29.98;47.68;101401.13;5013238;28;19913;-59
2022/08/03 11:49:42;;;;;;;;;;;;;;;30.08;46.73;101398.84;5016364;28;20404;-60
2022/08/03 11:52:08;;;;;;;;;;;;;;;30.16;47.43;101393.09;5011496;28;19924;-60
2022/08/03 11:54:33;;;;;;;;;;;;;;;30.24;46.66;101398.97;5013137;28;20373;-60
2022/08/03 11:56:58;;;;;;;;;;;;;;;30.29;46.16;101396.88;5021131;28;19978;-59
2022/08/03 11:59:30;;;;;;;;;;;;;;;30.39;45.87;101400.00;5015976;28;19914;-63
2022/08/03 12:02:04;;;;;;;;;;;;;;;30.46;46.49;101400.56;5021962;28;19913;-64
2022/08/03 12:04:30;;;;;;;;;;;;;;;30.52;46.16;101402.97;5016962;28;19925;-64
2022/08/03 12:06:59;;;;;;;;;;;;;;;30.54;45.47;101405.56;5012602;28;19921;-62
2022/08/03 12:09:24;;;;;;;;;;;;;;;30.58;45.74;101402.63;5010197;28;19909;-64
2022/08/03 12:11:50;;;;;;;;;;;;;;;30.67;46.96;101404.81;5010339;28;19921;-64
2022/08/03 12:14:16;;;;;;;;;;;;;;;30.73;45.91;101405.47;5007896;28;19913;-67
2022/08/03 12:16:45;;;;;;;;;;;;;;;30.79;44.68;101406.03;5001877;28;19920;-64
2022/08/03 12:19:10;;;;;;;;;;;;;;;30.83;45.68;101395.97;5008094;28;20459;-62
2022/08/03 12:21:44;;;;;;;;;;;;;;;30.90;46.48;101402.75;5006399;28;19975;-61
2022/08/03 12:24:09;;;;;;;;;;;;;;;30.98;45.37;101402.34;5006043;28;20439;-60
2022/08/03 12:26:45;;;;;;;;;;;;;;;31.06;44.63;101399.28;5002952;28;19953;-60
2022/08/03 12:29:17;;;;;;;;;;;;;;;31.10;44.64;101404.41;5004086;28;19913;-59
2022/08/03 12:31:42;;;;;;;;;;;;;;;31.14;45.30;101397.91;5004907;28;20424;-60
2022/08/03 12:34:08;;;;;;;;;;;;;;;31.20;45.38;101389.50;5005142;28;20001;-60
2022/08/03 12:36:34;;;;;;;;;;;;;;;31.28;45.35;101396.28;5015448;28;19913;-62
2022/08/03 12:39:10;;;;;;;;;;;;;;;31.36;45.66;101394.91;5009638;28;20365;-62